Time;durP1;ratioP1;P1;durP2;ratioP2;P2;SDS_P1;SDS_P2;PMS_P1;PMS_P2;Temp;Humidity;BMP_temperature;BMP_pressure;BME280_temperature;BME280_humidity;BME280_pressure;Samples;Min_cycle;Max_cycle;Signal;HPM_P1;HPM_P2
2022/05/07 00:01:48;;;;;;;17.88;12.95;;;;;;;14.79;62.65;102215.41;4971874;28;20034;-88
2022/05/07 00:04:13;;;;;;;17.92;13.23;;;;;;;14.87;61.83;102217.75;4972191;28;20569;-88
2022/05/07 00:06:39;;;;;;;17.60;13.27;;;;;;;14.83;62.41;102205.47;4976034;28;20025;-88
2022/05/07 00:09:04;;;;;;;19.40;14.02;;;;;;;14.71;62.73;102205.00;4975153;28;20076;-88
2022/05/07 00:11:29;;;;;;;20.73;13.38;;;;;;;14.53;63.37;102201.19;4995821;28;20038;-89
2022/05/07 00:13:55;;;;;;;24.15;13.77;;;;;;;14.51;63.93;102211.03;4979914;28;20022;-88
2022/05/07 00:19:04;;;;;;;18.13;13.27;;;;;;;14.10;64.70;102204.41;4991726;28;20397;-88
2022/05/07 00:21:30;;;;;;;20.85;14.13;;;;;;;14.15;64.52;102197.16;4990766;28;20104;-88
2022/05/07 00:23:57;;;;;;;19.27;14.00;;;;;;;14.26;63.66;102200.31;4978765;28;20437;-88
2022/05/07 00:26:22;;;;;;;20.45;13.90;;;;;;;14.28;64.18;102203.81;4989731;28;20047;-88
2022/05/07 00:28:47;;;;;;;22.58;13.88;;;;;;;14.02;64.70;102190.50;4989429;28;20029;-88
2022/05/07 00:31:13;;;;;;;18.05;13.40;;;;;;;14.14;64.60;102206.06;4972957;28;20049;-89
2022/05/07 00:33:38;;;;;;;20.15;13.63;;;;;;;14.21;63.72;102188.97;4975246;28;20035;-88
2022/05/07 00:36:04;;;;;;;20.27;13.60;;;;;;;14.35;63.21;102200.94;4972653;28;20034;-89
2022/05/07 00:38:29;;;;;;;16.90;13.30;;;;;;;14.30;63.16;102187.78;4988918;28;20092;-89
2022/05/07 00:40:55;;;;;;;16.27;12.10;;;;;;;14.49;62.48;102209.34;4988223;28;20475;-88
2022/05/07 00:43:20;;;;;;;17.48;13.10;;;;;;;14.47;62.50;102203.19;4974209;28;20038;-88
2022/05/07 00:45:47;;;;;;;16.80;13.00;;;;;;;14.58;61.88;102203.69;4974792;28;20037;-88
2022/05/07 00:48:14;;;;;;;18.95;13.07;;;;;;;14.33;62.81;102182.38;4975710;28;20030;-88
2022/05/07 00:53:24;;;;;;;17.23;13.13;;;;;;;14.11;64.07;102190.19;4994224;28;20049;-88
2022/05/07 00:55:50;;;;;;;19.08;13.35;;;;;;;14.18;63.50;102193.53;4989848;28;20034;-88
2022/05/07 00:58:16;;;;;;;19.77;13.73;;;;;;;14.00;64.68;102193.22;4974026;28;20515;-88
2022/05/07 01:00:43;;;;;;;17.48;13.30;;;;;;;13.88;64.95;102182.09;4989458;28;20026;-88
2022/05/07 01:03:09;;;;;;;18.52;12.93;;;;;;;13.91;65.07;102176.69;4990746;28;20485;-88
2022/05/07 01:05:34;;;;;;;18.50;13.68;;;;;;;13.93;65.19;102190.81;4974360;28;20057;-88
2022/05/07 01:08:00;;;;;;;16.33;12.82;;;;;;;14.00;64.45;102192.34;4990847;28;20034;-90
2022/05/07 01:10:27;;;;;;;20.00;12.85;;;;;;;13.87;64.42;102180.38;4973613;28;20022;-88
2022/05/07 01:12:54;;;;;;;18.85;13.30;;;;;;;13.79;64.18;102189.44;4973831;28;20502;-89
2022/05/07 01:15:19;;;;;;;17.13;12.20;;;;;;;13.86;64.49;102176.00;4975198;28;20041;-87
2022/05/07 01:17:45;;;;;;;17.73;13.82;;;;;;;13.97;64.67;102193.31;4989129;28;20113;-89
2022/05/07 01:20:12;;;;;;;19.08;13.30;;;;;;;13.88;64.48;102176.78;4975177;28;20022;-89
2022/05/07 01:22:38;;;;;;;16.23;12.65;;;;;;;13.91;64.05;102182.88;4972123;28;20064;-88
2022/05/07 01:25:05;;;;;;;18.88;12.90;;;;;;;14.03;64.04;102185.16;4994283;28;20515;-89
2022/05/07 01:27:31;;;;;;;21.33;13.20;;;;;;;13.90;64.56;102170.53;4975636;28;20034;-88
2022/05/07 01:29:56;;;;;;;21.77;14.48;;;;;;;13.89;64.59;102165.22;4989611;28;20080;-88
2022/05/07 01:32:22;;;;;;;19.58;13.27;;;;;;;13.97;64.82;102181.81;4989324;28;20529;-88
2022/05/07 01:34:48;;;;;;;16.58;12.77;;;;;;;13.99;64.56;102172.88;4993741;28;20022;-89
2022/05/07 01:37:13;;;;;;;17.02;13.23;;;;;;;13.88;65.07;102166.16;4972477;28;20057;-90
2022/05/07 01:39:38;;;;;;;18.33;14.25;;;;;;;13.82;64.72;102155.72;4974030;28;20026;-88
2022/05/07 01:42:04;;;;;;;20.02;14.65;;;;;;;13.64;65.96;102157.19;4990098;28;20500;-89
2022/05/07 01:44:29;;;;;;;20.30;13.52;;;;;;;13.56;65.23;102152.09;4975518;28;20038;-88
2022/05/07 01:49:38;;;;;;;17.38;12.80;;;;;;;13.78;64.62;102171.78;4985098;28;20099;-89
2022/05/07 01:52:04;;;;;;;15.48;12.15;;;;;;;13.90;63.82;102175.84;4988490;28;20512;-89
2022/05/07 01:54:29;;;;;;;17.55;12.80;;;;;;;13.89;65.18;102163.44;4969139;28;20523;-88
2022/05/07 01:56:54;;;;;;;18.38;13.50;;;;;;;13.91;65.13;102166.06;4991255;28;20041;-89
2022/05/07 01:59:20;;;;;;;18.30;13.80;;;;;;;13.92;63.96;102168.66;4990080;28;20041;-88
2022/05/07 02:01:45;;;;;;;18.00;14.82;;;;;;;13.79;64.94;102160.22;4972571;28;20039;-89
2022/05/07 02:04:10;;;;;;;18.15;14.18;;;;;;;13.70;65.15;102160.50;4969152;28;20030;-89
2022/05/07 02:06:36;;;;;;;19.83;13.75;;;;;;;13.70;64.41;102157.84;4975810;28;20030;-89
2022/05/07 02:09:01;;;;;;;19.40;14.73;;;;;;;13.60;65.61;102155.53;4972862;28;20393;-89
2022/05/07 02:11:27;;;;;;;24.73;15.73;;;;;;;13.55;65.78;102152.16;4989558;28;20034;-88
2022/05/07 02:13:52;;;;;;;22.73;16.20;;;;;;;13.32;67.19;102167.03;4993062;28;20028;-89
2022/05/07 02:16:17;;;;;;;23.45;16.80;;;;;;;12.98;68.10;102133.50;4973782;28;20041;-88
2022/05/07 02:18:43;;;;;;;20.65;14.82;;;;;;;13.06;67.37;102143.03;4989686;28;20030;-90
2022/05/07 02:21:08;;;;;;;19.40;14.90;;;;;;;13.09;68.42;102126.97;4972384;28;20033;-88
2022/05/07 02:23:34;;;;;;;20.48;15.68;;;;;;;13.28;67.85;102136.16;4975625;28;20052;-89
2022/05/07 02:26:00;;;;;;;25.00;16.13;;;;;;;13.32;66.82;102135.16;4971855;28;20034;-88
2022/05/07 02:28:25;;;;;;;23.02;15.68;;;;;;;13.44;66.86;102161.34;4986378;28;20465;-88
2022/05/07 02:30:50;;;;;;;21.52;15.50;;;;;;;13.41;65.63;102142.84;4989917;28;20103;-88
2022/05/07 02:33:16;;;;;;;20.42;15.88;;;;;;;13.51;65.70;102149.59;4991286;28;20030;-88
2022/05/07 02:35:42;;;;;;;24.15;16.45;;;;;;;13.34;67.14;102153.72;4991018;28;20642;-88
2022/05/07 02:38:07;;;;;;;21.75;16.42;;;;;;;13.08;67.63;102128.78;4973168;28;20030;-88
2022/05/07 02:42:33;;;;;;;24.98;17.90;;;;;;;13.13;67.64;102140.13;4971873;28;20084;-88
2022/05/07 02:43:18;;;;;;;20.65;15.57;;;;;;;13.17;67.10;102136.47;4988969;28;20177;-88
2022/05/07 02:45:43;;;;;;;22.05;17.77;;;;;;;13.02;68.64;102142.25;4989389;28;20121;-89
2022/05/07 02:48:08;;;;;;;28.35;18.80;;;;;;;12.77;69.49;102128.78;4975978;28;20053;-89
2022/05/07 02:50:34;;;;;;;23.45;17.52;;;;;;;12.65;69.68;102123.84;4993849;28;20124;-89
2022/05/07 02:52:59;;;;;;;27.42;19.00;;;;;;;12.48;70.13;102121.66;4970821;28;20393;-89
2022/05/07 02:55:24;;;;;;;27.48;18.83;;;;;;;12.41;70.55;102133.38;4976473;28;20598;-88
2022/05/07 02:57:50;;;;;;;25.65;18.20;;;;;;;12.43;71.04;102136.81;4971134;28;20054;-89
2022/05/07 03:00:16;;;;;;;26.42;18.92;;;;;;;12.30;71.22;102125.66;4970300;28;20049;-89
2022/05/07 03:02:41;;;;;;;27.10;19.67;;;;;;;12.34;70.87;102116.72;4988693;28;20030;-88
2022/05/07 03:05:06;;;;;;;27.00;19.67;;;;;;;12.44;70.47;102120.84;4992478;28;20038;-89
2022/05/07 03:07:32;;;;;;;26.45;19.40;;;;;;;12.66;69.76;102131.75;4971680;28;20035;-89
2022/05/07 03:09:57;;;;;;;27.55;18.88;;;;;;;12.66;69.24;102110.53;4995248;28;20041;-89
2022/05/07 03:12:23;;;;;;;26.52;18.73;;;;;;;12.72;69.66;102126.25;4975348;28;20038;-89
2022/05/07 03:14:48;;;;;;;22.42;17.83;;;;;;;12.62;69.53;102116.84;4965266;28;20405;-89
2022/05/07 03:17:13;;;;;;;21.83;16.80;;;;;;;12.67;69.47;102114.06;4984439;28;20030;-89
2022/05/07 03:19:39;;;;;;;25.20;17.75;;;;;;;12.85;68.66;102132.09;4992941;28;20034;-89
2022/05/07 03:22:04;;;;;;;26.15;16.95;;;;;;;12.92;68.64;102136.34;4989065;28;21130;-90
2022/05/07 03:24:30;;;;;;;23.00;16.73;;;;;;;12.98;68.08;102130.84;4990455;28;20031;-88
2022/05/07 03:26:56;;;;;;;23.80;17.70;;;;;;;13.00;69.16;102133.44;4977998;28;20496;-89
2022/05/07 03:29:21;;;;;;;22.08;16.63;;;;;;;12.96;68.70;102134.44;4993052;28;20040;-89
2022/05/07 03:31:49;;;;;;;24.92;17.92;;;;;;;12.97;67.98;102125.56;4987015;28;20017;-89
2022/05/07 03:34:15;;;;;;;24.20;16.88;;;;;;;13.10;68.35;102128.72;4994539;28;20033;-90
2022/05/07 03:36:40;;;;;;;20.67;15.63;;;;;;;13.12;67.64;102137.53;4975164;28;20033;-88
2022/05/07 03:39:06;;;;;;;21.38;16.60;;;;;;;13.09;67.00;102117.22;4977129;28;20032;-89
2022/05/07 03:41:31;;;;;;;20.92;17.08;;;;;;;13.08;67.59;102131.44;4990068;28;20516;-89
2022/05/07 03:43:57;;;;;;;20.20;16.20;;;;;;;12.99;69.22;102129.03;4976553;28;20061;-90
2022/05/07 03:46:24;;;;;;;22.75;17.48;;;;;;;12.94;67.95;102130.97;4971422;28;20038;-89
2022/05/07 03:48:50;;;;;;;23.20;18.20;;;;;;;12.97;68.23;102134.41;4991445;28;20030;-90
2022/05/07 03:51:15;;;;;;;27.10;18.83;;;;;;;12.98;68.80;102144.09;4969790;28;20088;-90
2022/05/07 03:53:41;;;;;;;25.92;17.63;;;;;;;12.99;69.46;102135.22;4973350;28;20085;-88
2022/05/07 03:56:08;;;;;;;20.85;16.38;;;;;;;13.02;69.26;102142.25;4993629;28;20022;-89
2022/05/07 03:58:34;;;;;;;23.95;18.00;;;;;;;13.01;70.71;102145.81;4978437;28;20042;-89
2022/05/07 04:01:00;;;;;;;22.60;17.73;;;;;;;12.97;67.88;102142.38;4990433;28;20488;-89
2022/05/07 04:03:27;;;;;;;22.42;16.52;;;;;;;12.87;67.82;102135.59;4987800;28;20492;-89
2022/05/07 04:05:53;;;;;;;21.38;17.17;;;;;;;12.83;69.09;102125.13;4973059;28;20375;-88
2022/05/07 04:08:18;;;;;;;24.05;18.42;;;;;;;12.99;68.54;102145.84;4988831;28;20041;-90
2022/05/07 04:10:44;;;;;;;24.92;18.20;;;;;;;13.08;68.31;102144.69;4994910;28;20030;-89
2022/05/07 04:13:11;;;;;;;26.08;17.35;;;;;;;13.04;68.59;102143.06;4975236;28;20034;-89
2022/05/07 04:15:37;;;;;;;23.38;17.95;;;;;;;12.96;69.16;102145.06;4969298;28;20121;-88
2022/05/07 04:18:04;;;;;;;23.60;17.75;;;;;;;12.94;69.31;102158.38;4988847;28;20503;-89
2022/05/07 04:20:29;;;;;;;27.30;18.40;;;;;;;12.83;69.26;102136.59;4990307;28;20030;-89
2022/05/07 04:22:55;;;;;;;22.40;17.73;;;;;;;13.00;69.06;102162.63;4975253;28;20036;-89
2022/05/07 04:25:20;;;;;;;25.33;19.17;;;;;;;12.84;70.00;102143.63;4970723;28;20057;-89
2022/05/07 04:27:45;;;;;;;24.65;17.92;;;;;;;12.63;70.43;102144.22;4976724;28;20049;-88
2022/05/07 04:30:11;;;;;;;25.85;18.80;;;;;;;12.56;70.93;102153.28;4973523;28;20044;-88
2022/05/07 04:32:36;;;;;;;25.77;18.73;;;;;;;12.55;71.16;102152.41;4988685;28;20409;-88
2022/05/07 04:35:02;;;;;;;28.85;19.67;;;;;;;12.53;71.38;102164.84;4974756;28;20172;-89
2022/05/07 04:37:27;;;;;;;27.27;19.45;;;;;;;12.39;71.64;102145.78;4977133;28;20095;-89
2022/05/07 04:39:53;;;;;;;26.48;19.48;;;;;;;12.48;71.55;102156.13;4977034;28;20033;-89
2022/05/07 04:42:18;;;;;;;24.65;17.00;;;;;;;12.58;70.82;102162.94;4989113;28;20041;-89
2022/05/07 04:44:44;;;;;;;24.25;17.95;;;;;;;12.73;70.62;102166.97;4975160;28;20137;-90
2022/05/07 04:47:09;;;;;;;27.27;19.10;;;;;;;12.72;71.41;102167.84;4971937;28;20945;-89
2022/05/07 04:49:36;;;;;;;25.95;18.67;;;;;;;12.66;71.41;102152.13;4991703;28;20084;-90
2022/05/07 04:52:03;;;;;;;23.73;17.75;;;;;;;12.80;70.57;102167.66;4973643;28;20064;-90
2022/05/07 04:54:28;;;;;;;26.13;17.25;;;;;;;12.91;70.06;102150.50;4992566;28;20029;-89
2022/05/07 04:56:53;;;;;;;23.92;18.25;;;;;;;12.88;69.09;102157.69;4967671;28;20053;-91
2022/05/07 04:59:20;;;;;;;27.52;19.08;;;;;;;12.99;70.68;102174.16;4987673;28;20053;-89
2022/05/07 05:01:46;;;;;;;23.63;18.13;;;;;;;13.01;70.27;102169.72;4971864;28;20034;-90
2022/05/07 05:04:12;;;;;;;23.73;18.55;;;;;;;13.05;70.62;102163.38;4989622;28;21055;-90
2022/05/07 05:06:38;;;;;;;25.42;17.65;;;;;;;13.19;70.11;102170.94;4990919;28;20117;-90
2022/05/07 05:09:05;;;;;;;25.35;18.58;;;;;;;13.27;69.92;102185.75;4974543;28;20032;-89
2022/05/07 05:11:31;;;;;;;25.83;19.80;;;;;;;13.22;70.59;102169.09;4970933;28;20541;-89
2022/05/07 05:13:56;;;;;;;24.35;18.40;;;;;;;13.18;70.98;102179.81;4991298;28;20112;-90
2022/05/07 05:16:22;;;;;;;30.73;19.33;;;;;;;13.07;71.43;102188.09;4991214;28;20092;-90
2022/05/07 05:18:47;;;;;;;26.25;18.45;;;;;;;13.08;70.68;102179.22;4990874;28;20054;-89
2022/05/07 05:21:13;;;;;;;26.25;20.13;;;;;;;13.33;70.21;102194.44;4971534;28;20760;-90
2022/05/07 05:23:38;;;;;;;23.92;18.10;;;;;;;13.41;70.08;102195.09;4971356;28;20033;-90
2022/05/07 05:26:03;;;;;;;28.77;19.80;;;;;;;13.56;70.18;102194.63;4989196;28;20379;-89
2022/05/07 05:28:28;;;;;;;29.02;21.10;;;;;;;13.53;69.60;102181.44;4973799;28;20026;-89
2022/05/07 05:30:55;;;;;;;27.65;20.55;;;;;;;13.84;69.94;102213.22;4987370;28;20104;-90
2022/05/07 05:33:21;;;;;;;29.58;21.15;;;;;;;13.93;69.08;102212.06;4991981;28;20046;-90
2022/05/07 05:35:47;;;;;;;33.42;23.38;;;;;;;14.08;68.91;102216.88;4974427;28;20030;-91
2022/05/07 05:38:13;;;;;;;34.03;23.70;;;;;;;14.06;68.91;102208.09;4987320;28;20544;-90
2022/05/07 05:40:41;;;;;;;30.90;23.10;;;;;;;14.17;67.86;102216.59;4973817;28;20045;-89
2022/05/07 05:43:06;;;;;;;34.42;26.02;;;;;;;14.29;68.03;102216.19;4973161;28;20022;-89
2022/05/07 05:45:31;;;;;;;39.25;25.63;;;;;;;14.34;67.51;102215.16;4989835;28;20037;-90
2022/05/07 05:47:57;;;;;;;35.28;26.27;;;;;;;14.41;67.10;102208.69;4972319;28;20084;-89
2022/05/07 05:50:24;;;;;;;35.67;26.25;;;;;;;14.47;67.74;102220.00;4974606;28;20089;-89
2022/05/07 05:52:50;;;;;;;35.45;25.98;;;;;;;14.48;67.06;102212.94;4972311;28;20681;-89
2022/05/07 05:55:15;;;;;;;34.42;25.70;;;;;;;14.56;65.80;102218.00;4973134;28;20025;-89
2022/05/07 05:57:40;;;;;;;34.55;26.20;;;;;;;14.68;66.21;102207.75;4972865;28;20242;-89
2022/05/07 06:00:09;;;;;;;37.67;25.83;;;;;;;14.76;65.34;102219.03;4973347;28;20513;-90
2022/05/07 06:02:35;;;;;;;31.70;23.58;;;;;;;14.95;64.51;102226.34;4989670;28;20112;-90
2022/05/07 06:05:00;;;;;;;38.88;23.70;;;;;;;15.04;63.91;102216.22;4990648;28;20030;-89
2022/05/07 06:07:26;;;;;;;34.47;23.35;;;;;;;15.06;63.51;102202.84;4988986;28;20034;-90
2022/05/07 06:09:51;;;;;;;30.77;22.55;;;;;;;15.28;62.32;102222.44;4989554;28;20018;-89
2022/05/07 06:12:16;;;;;;;33.90;22.98;;;;;;;15.23;62.28;102212.88;4967511;28;20358;-89
2022/05/07 06:14:42;;;;;;;33.60;21.92;;;;;;;15.44;62.06;102219.22;4973784;28;20029;-89
2022/05/07 06:17:07;;;;;;;31.00;20.85;;;;;;;15.51;61.73;102216.22;4986668;28;20133;-88
2022/05/07 06:19:32;;;;;;;27.75;20.42;;;;;;;15.68;61.42;102228.94;4985201;28;20474;-89
2022/05/07 06:21:57;;;;;;;34.42;21.95;;;;;;;15.74;60.92;102233.16;4971898;28;20133;-88
2022/05/07 06:29:50;;;;;;;32.92;22.45;;;;;;;15.96;60.41;102236.72;4986883;28;21981;-89
2022/05/07 06:32:19;;;;;;;28.75;20.67;;;;;;;16.06;59.69;102226.53;4973766;28;20030;-89
2022/05/07 06:34:44;;;;;;;32.42;20.55;;;;;;;16.16;59.81;102229.69;4986708;28;20563;-88
2022/05/07 06:37:10;;;;;;;29.10;19.02;;;;;;;16.12;58.68;102206.72;4968974;28;20034;-88
2022/05/07 06:39:35;;;;;;;28.83;19.45;;;;;;;16.21;58.83;102215.22;4987242;28;20034;-89
2022/05/07 06:42:00;;;;;;;28.77;19.40;;;;;;;16.36;59.00;102239.53;4963599;28;20714;-88
2022/05/07 06:44:26;;;;;;;27.75;18.45;;;;;;;16.40;58.34;102225.13;4968308;28;20089;-88
2022/05/07 06:46:51;;;;;;;32.05;18.45;;;;;;;16.41;59.12;102224.19;4988080;28;20175;-88
2022/05/07 06:49:18;;;;;;;32.35;19.50;;;;;;;16.45;58.64;102226.66;4973197;28;20034;-87
2022/05/07 06:51:43;;;;;;;31.90;18.70;;;;;;;16.61;58.12;102231.34;4966213;28;20033;-88
2022/05/07 06:54:09;;;;;;;30.58;18.95;;;;;;;16.67;58.15;102226.59;4991408;28;20470;-88
2022/05/07 06:56:35;;;;;;;29.70;17.80;;;;;;;16.79;58.08;102235.94;4975553;28;20033;-88
2022/05/07 06:59:00;;;;;;;31.63;18.23;;;;;;;16.77;57.97;102227.09;4993145;28;20056;-87
2022/05/07 07:01:26;;;;;;;27.80;19.17;;;;;;;16.93;58.08;102233.50;4973845;28;20401;-87
2022/05/07 07:03:51;;;;;;;32.58;20.02;;;;;;;17.04;57.56;102225.00;4974864;28;20291;-88
2022/05/07 07:06:17;;;;;;;28.30;18.42;;;;;;;17.18;57.13;102219.91;4970349;28;20623;-88
2022/05/07 07:08:42;;;;;;;29.17;18.20;;;;;;;17.21;56.05;102226.94;4989093;28;20037;-88
2022/05/07 07:11:08;;;;;;;29.55;18.35;;;;;;;17.22;56.37;102231.31;4970874;28;20034;-87
2022/05/07 07:13:33;;;;;;;29.38;18.98;;;;;;;17.20;56.37;102226.03;4977819;28;20460;-87
2022/05/07 07:15:58;;;;;;;30.50;19.42;;;;;;;17.30;56.74;102223.84;4989978;28;20034;-86
2022/05/07 07:18:24;;;;;;;30.88;19.33;;;;;;;17.48;56.38;102236.31;4974924;28;20026;-87
2022/05/07 07:20:49;;;;;;;29.65;19.30;;;;;;;17.57;57.27;102229.66;4972747;28;20037;-87
2022/05/07 07:23:15;;;;;;;32.42;20.60;;;;;;;17.69;56.04;102226.44;4976854;28;21660;-87
2022/05/07 07:25:42;;;;;;;29.13;19.17;;;;;;;17.77;55.17;102223.44;4972036;28;21204;-87
2022/05/07 07:28:09;;;;;;;30.48;19.65;;;;;;;17.97;55.53;102236.69;4991275;28;20038;-87
2022/05/07 07:30:35;;;;;;;25.30;17.77;;;;;;;18.16;56.01;102239.31;4987222;28;20062;-87
2022/05/07 07:33:01;;;;;;;29.40;18.95;;;;;;;18.23;54.73;102232.75;4984891;28;20076;-88
2022/05/07 07:35:27;;;;;;;30.85;19.80;;;;;;;18.47;55.12;102244.00;4976030;28;20029;-87
2022/05/07 07:37:52;;;;;;;28.88;19.05;;;;;;;18.56;53.59;102237.31;4990255;28;20383;-87
2022/05/07 07:40:18;;;;;;;27.58;18.98;;;;;;;18.64;54.63;102219.03;4988582;28;20038;-88
2022/05/07 07:42:43;;;;;;;29.80;19.55;;;;;;;18.98;51.15;102203.88;4969421;28;20041;-87
2022/05/07 07:47:57;;;;;;;29.73;19.52;;;;;;;19.69;51.34;102215.16;4989637;28;20095;-87
2022/05/07 07:50:34;;;;;;;28.73;20.33;;;;;;;20.06;49.94;102235.41;4964467;28;20048;-88
2022/05/07 07:53:04;;;;;;;29.60;18.90;;;;;;;20.16;48.12;102238.41;4986316;28;20039;-87
2022/05/07 07:55:30;;;;;;;24.88;18.10;;;;;;;20.35;48.59;102232.81;4971903;28;20053;-87
2022/05/07 07:58:00;;;;;;;28.80;17.55;;;;;;;20.57;47.55;102227.09;4967720;28;20073;-88
2022/05/07 08:00:27;;;;;;;27.30;18.13;;;;;;;21.00;46.67;102237.91;4985793;28;20030;-87
2022/05/07 08:02:54;;;;;;;29.48;19.27;;;;;;;21.35;46.01;102235.69;4987371;28;20141;-87
2022/05/07 08:05:25;;;;;;;26.77;17.92;;;;;;;21.61;44.88;102226.84;4989365;28;20125;-87
2022/05/07 08:13:19;;;;;;;31.90;17.35;;;;;;;22.66;42.15;102237.81;4982451;28;20077;-86
2022/05/07 08:15:45;;;;;;;26.30;18.10;;;;;;;23.07;40.72;102233.19;4984941;28;20030;-86
2022/05/07 08:18:11;;;;;;;26.05;18.05;;;;;;;23.55;39.74;102231.53;4971194;28;20110;-87
2022/05/07 08:20:37;;;;;;;29.58;19.00;;;;;;;24.06;38.65;102234.06;4991147;28;20116;-86
2022/05/07 08:23:02;;;;;;;27.85;18.88;;;;;;;24.44;38.92;102222.22;4967113;28;20030;-86
2022/05/07 08:25:27;;;;;;;30.55;20.65;;;;;;;23.84;38.75;102226.69;4985580;28;20533;-87
2022/05/07 08:27:55;;;;;;;32.20;21.20;;;;;;;23.74;39.56;102235.59;4988539;28;20053;-87
2022/05/07 08:30:21;;;;;;;28.27;19.48;;;;;;;23.74;39.47;102243.72;4968184;28;20057;-88
2022/05/07 08:32:46;;;;;;;34.03;21.42;;;;;;;23.66;39.33;102241.56;4987308;28;20401;-87
2022/05/07 08:35:11;;;;;;;36.80;21.33;;;;;;;23.54;40.23;102234.31;4981376;28;20061;-87
2022/05/07 08:37:37;;;;;;;33.47;20.83;;;;;;;23.32;39.99;102238.59;4987076;28;20030;-88
2022/05/07 08:40:03;;;;;;;32.30;20.65;;;;;;;23.43;39.86;102246.75;4991864;28;20042;-87
2022/05/07 08:42:29;;;;;;;28.55;20.75;;;;;;;23.56;38.89;102240.47;4985669;28;20452;-87
2022/05/07 08:44:55;;;;;;;32.22;21.77;;;;;;;23.70;39.82;102243.06;4983248;28;20039;-87
2022/05/07 08:47:23;;;;;;;32.47;21.73;;;;;;;23.97;38.55;102252.78;4973790;28;20054;-88
2022/05/07 08:49:52;;;;;;;30.58;21.48;;;;;;;24.31;37.95;102241.16;4987518;28;20567;-86
2022/05/07 08:52:18;;;;;;;30.25;21.02;;;;;;;24.98;37.23;102236.94;4970812;28;20022;-87
2022/05/07 08:54:45;;;;;;;30.88;23.05;;;;;;;25.94;35.09;102234.59;4987999;28;20038;-85
2022/05/07 08:57:11;;;;;;;32.55;22.67;;;;;;;26.48;33.09;102230.06;4979217;28;20057;-86
2022/05/07 08:59:38;;;;;;;35.92;22.63;;;;;;;26.76;33.25;102237.53;4987131;28;20370;-85
2022/05/07 09:02:04;;;;;;;32.38;21.63;;;;;;;26.74;33.11;102234.13;4981741;28;20018;-85
2022/05/07 09:04:29;;;;;;;34.28;22.42;;;;;;;27.05;32.37;102223.31;4984130;28;20038;-87
2022/05/07 09:06:57;;;;;;;33.38;21.42;;;;;;;27.61;31.60;102239.13;4969343;28;20056;-86
2022/05/07 09:09:23;;;;;;;32.55;21.58;;;;;;;27.91;31.58;102244.50;4967032;28;20465;-85
2022/05/07 09:11:48;;;;;;;31.75;21.92;;;;;;;28.10;30.65;102237.38;4982085;28;20054;-86
2022/05/07 09:14:18;;;;;;;35.40;22.30;;;;;;;27.68;30.24;102226.69;4981405;28;20038;-87
2022/05/07 09:16:51;;;;;;;30.42;21.23;;;;;;;26.85;33.75;102234.03;4970800;28;20644;-86
2022/05/07 09:19:31;;;;;;;30.27;21.23;;;;;;;26.95;33.46;102232.25;4965445;28;20677;-86
2022/05/07 09:22:08;;;;;;;31.65;21.35;;;;;;;27.43;32.50;102230.78;4966395;28;20041;-86
2022/05/07 09:24:34;;;;;;;33.13;20.52;;;;;;;28.05;31.97;102226.06;4967465;28;20056;-87
2022/05/07 09:26:59;;;;;;;26.35;19.73;;;;;;;28.82;30.61;102220.59;4964846;28;20033;-87
2022/05/07 09:29:28;;;;;;;27.83;19.25;;;;;;;28.90;29.75;102228.84;4977271;28;20413;-86
2022/05/07 09:31:54;;;;;;;29.30;20.23;;;;;;;28.67;29.82;102233.78;4960292;28;20182;-86
2022/05/07 09:37:18;;;;;;;27.92;18.95;;;;;;;27.99;31.79;102230.22;4988639;28;20040;-86
2022/05/07 09:39:51;;;;;;;33.08;18.98;;;;;;;27.98;32.35;102231.22;4983466;28;20060;-88
2022/05/07 09:42:19;;;;;;;27.40;19.95;;;;;;;27.94;31.33;102225.19;4979063;28;21017;-86
2022/05/07 09:44:45;;;;;;;29.75;19.95;;;;;;;28.13;31.05;102228.94;4984430;28;20030;-86
2022/05/07 09:47:12;;;;;;;28.83;19.45;;;;;;;27.92;31.32;102227.19;4972611;28;20034;-87
2022/05/07 09:50:19;;;;;;;25.20;18.08;;;;;;;27.95;30.76;102234.22;4987582;28;20053;-86
2022/05/07 09:52:27;;;;;;;27.33;18.73;;;;;;;27.75;30.51;102227.91;4978366;28;20065;-87
2022/05/07 09:57:38;;;;;;;29.17;20.23;;;;;;;26.74;31.15;102216.97;4985427;28;20077;-88
2022/05/07 10:00:10;;;;;;;28.08;19.08;;;;;;;26.50;33.10;102233.53;4983746;28;20018;-86
2022/05/07 10:03:03;;;;;;;27.08;19.20;;;;;;;26.06;34.24;102236.25;4969143;28;20037;-87
2022/05/07 10:05:49;;;;;;;27.70;17.58;;;;;;;26.10;34.80;102223.31;4989317;28;20046;-88
2022/05/07 10:08:27;;;;;;;28.27;17.08;;;;;;;26.42;34.91;102231.44;4988404;28;20501;-87
2022/05/07 10:10:53;;;;;;;27.38;17.80;;;;;;;25.80;34.61;102210.50;4968612;28;20034;-87
2022/05/07 10:13:19;;;;;;;25.42;17.50;;;;;;;26.32;33.28;102208.81;4985332;28;20669;-88
2022/05/07 10:15:45;;;;;;;21.92;15.98;;;;;;;27.08;33.08;102218.47;4966738;28;20103;-88
2022/05/07 10:18:15;;;;;;;23.48;14.27;;;;;;;27.52;30.09;102224.53;4973191;28;20048;-87
2022/05/07 10:20:44;;;;;;;17.83;12.43;;;;;;;28.00;30.40;102231.06;4967060;28;20383;-86
2022/05/07 10:23:14;;;;;;;17.55;11.25;;;;;;;28.38;29.96;102217.50;4982581;28;20516;-86
2022/05/07 10:25:54;;;;;;;18.88;11.93;;;;;;;28.49;28.03;102216.47;4986556;28;20115;-86
2022/05/07 10:28:20;;;;;;;16.88;11.23;;;;;;;29.15;28.28;102197.41;4966130;28;20030;-86
2022/05/07 10:30:50;;;;;;;17.17;13.23;;;;;;;29.01;27.16;102219.69;4968063;28;20026;-87
2022/05/07 10:33:18;;;;;;;19.38;11.23;;;;;;;28.66;27.24;102210.28;4970630;28;20058;-87
2022/05/07 10:35:54;;;;;;;17.20;10.45;;;;;;;29.01;28.38;102216.13;4985437;28;20030;-86
2022/05/07 10:38:28;;;;;;;17.33;10.27;;;;;;;28.73;26.71;102210.59;4968240;28;20600;-87
2022/05/07 10:40:55;;;;;;;17.70;12.82;;;;;;;28.73;26.04;102216.03;4965098;28;20034;-86
2022/05/07 10:43:34;;;;;;;26.20;10.38;;;;;;;28.97;26.71;102218.28;4983533;28;20037;-88
2022/05/07 10:46:02;;;;;;;14.80;10.75;;;;;;;29.00;25.07;102225.28;4987334;28;20041;-87
2022/05/07 10:48:28;;;;;;;16.65;10.85;;;;;;;28.79;25.79;102212.69;4980578;28;20556;-86
2022/05/07 10:50:58;;;;;;;15.30;9.82;;;;;;;28.76;25.78;102212.13;4969114;28;20030;-89
2022/05/07 10:53:34;;;;;;;14.95;10.43;;;;;;;29.29;26.97;102206.09;4974267;28;20046;-88
2022/05/07 10:56:00;;;;;;;12.40;8.50;;;;;;;29.24;25.55;102201.13;4982319;28;20054;-86
2022/05/07 10:58:29;;;;;;;12.43;6.95;;;;;;;29.49;24.48;102202.25;4965701;28;20688;-86
2022/05/07 11:00:59;;;;;;;13.68;7.97;;;;;;;28.95;26.16;102191.19;4969572;28;20399;-88
2022/05/07 11:03:27;;;;;;;9.60;7.30;;;;;;;29.33;24.81;102196.59;4987277;28;20116;-87
2022/05/07 11:06:00;;;;;;;13.23;7.70;;;;;;;29.98;26.06;102203.69;4973514;28;20034;-88
2022/05/07 11:08:25;;;;;;;17.90;9.77;;;;;;;30.27;25.91;102191.69;4992971;28;20041;-86
2022/05/07 11:10:50;;;;;;;19.25;11.13;;;;;;;30.32;25.50;102202.13;4988806;28;20026;-86
2022/05/07 11:13:19;;;;;;;16.52;10.57;;;;;;;30.10;25.88;102197.97;4989101;28;20508;-86
2022/05/07 11:15:50;;;;;;;20.65;11.25;;;;;;;29.96;25.48;102193.94;4970446;28;20513;-86
2022/05/07 11:18:16;;;;;;;15.75;10.48;;;;;;;30.28;25.34;102201.56;4970569;28;20108;-86
2022/05/07 11:20:41;;;;;;;14.68;9.73;;;;;;;30.55;25.33;102191.56;4974672;28;20398;-87
2022/05/07 11:23:11;;;;;;;12.32;8.48;;;;;;;31.05;24.98;102199.03;4965463;28;20038;-86
2022/05/07 11:25:37;;;;;;;16.05;9.73;;;;;;;31.05;23.26;102188.09;4989837;28;20025;-86
2022/05/07 11:28:03;;;;;;;14.15;9.88;;;;;;;31.09;22.55;102195.81;4986371;28;20070;-87
2022/05/07 11:30:28;;;;;;;16.85;9.88;;;;;;;31.19;21.85;102188.34;4992108;28;20022;-88
2022/05/07 11:32:55;;;;;;;13.20;8.35;;;;;;;30.81;22.63;102197.88;4987946;28;20034;-87
2022/05/07 11:35:24;;;;;;;15.55;8.27;;;;;;;30.52;24.12;102180.94;4986162;28;20425;-88